Arlington, Alabama
Current Conditions -  °F | °C
As of 7:15 PM on Thursday 27 Nov 2014 (Local Time) from KDYA Reporting Station
Clear Clear  
Wind Chill: 35°   Ceiling: Unl
Heat Index: 38°   Visibility: 10mi
Dew Point: 30°   Wind: 5mph
Humidity: 71%   Direction: 360°N
Pressure: 30.48"   Gusts: NA
Location:  32.06°N, 87.59°W
Report Text: KDYA 280115Z AUTO 36004KT 10SM CLR 04/M01 A3048 RMK AO2 T00361012
Loading
Personal Weather Stations






























Interactive Weather Map New forecast layout! Learn more

10-Day Weather Forecast

Advertisements
Track Severe Weather on mobile